Greenville Airport (GRE)
Greenville, IL
Field Elevation: 540
Lat: 38°50.00N  Long: 89°22.00W
CTAF/Unicom Freq: 123.0500
   
     For Weather-by-Phone, call (618) 664-1939
Weather Advisories
2019-11-21   20:57 Z
Altimeter 29.90" Hg
Wind 210° @ 9 KT
Gusts 14 KT
Visibility 10 SM
Temperature 15° C (59° F)
Dewpoint 14° C (57° F)
Relative Humidity 98%
Density Altitude --
Condensation Altitude 800 feet
Wind and Runways
Indicated Runway = 18
Headwind = 8 kt
Crosswind = 4 kt
History
 
 
 
More Info
 
NOAA Forecast
 
Airport IQ 5010
(FLV) Sherman Airfield
(VLA) Vandalia
 
about Belfort Instrument
 
FAA Disclaimer: The data displayed is for advisory purposes only and is not to be used for flight planning or operations. For official data, please call (618) 664-1939 to hear the current automated AWOS voice message.
  METAR GRE 212057Z AUTO 21009G14KT 10 SM 15/14 A2990